Flight Track Log - Related Links

Times and Time Zones

All times are in EDT time to prevent confusion due to time zone crossing. See the ASA124 flight status page for this flight to view local times or setup timezone preferences in your user account.

Time Position Orientation Groundspeed Altitude Reporting Facility
EDT Latitude Longitude Course Direction KTS MPH feet Rate Location/Type
Sat 09:15:24 PM 64.7333 -147.6667 121° Southeast 250 288 6,000  Level Anchorage Center
Sat 09:16:25 PM 64.6833 -147.5833 145° Southeast 270 311 8,900 2,500 Climbing Anchorage Center
Sat 09:17:24 PM 64.6333 -147.4167 125° Southeast 300 345 11,000 2,319 Climbing Anchorage Center
Sat 09:18:24 PM 64.5833 -147.2333 122° Southeast 330 380 13,500 2,579 Climbing Anchorage Center
Sat 09:19:00 PM 64.3489 -146.5568 127° Southeast  Level Estimated
Sat 09:19:25 PM 64.5333 -147.0333 120° Southeast 350 403 16,200  Level Anchorage Center
Sat 09:20:00 PM 64.2697 -146.3433 121° Southeast  Level Estimated
Sat 09:20:25 PM 64.4833 -146.8500 122° Southeast 380 437 18,300  Level Anchorage Center
Sat 09:21:25 PM 64.4167 -146.6167 123° Southeast 400 460 20,900 2,150 Climbing Anchorage Center
Sat 09:22:25 PM 64.3500 -146.4000 125° Southeast 410 472 22,600 1,950 Climbing Anchorage Center
Sat 09:23:25 PM 64.3000 -146.1833 118° Southeast 420 483 24,800 2,000 Climbing Anchorage Center
Sat 09:24:25 PM 64.2333 -145.9500 123° Southeast 430 495 26,600 1,750 Climbing Anchorage Center
Sat 09:25:25 PM 64.1667 -145.7167 123° Southeast 430 495 28,300 1,736 Climbing Anchorage Center
Sat 09:26:26 PM 64.0833 -145.4833 129° Southeast 430 495 30,100 1,488 Climbing Anchorage Center
Sat 09:27:26 PM 64.0167 -145.2667 125° Southeast 440 506 31,300 1,160 Climbing Anchorage Center
Sat 09:28:25 PM 63.9500 -145.0167 121° Southeast 440 506 32,400 850 Climbing Anchorage Center
Sat 09:29:26 PM 63.8833 -144.8000 125° Southeast 440 506 33,000 298 Climbing Anchorage Center
Sat 09:30:26 PM 63.8167 -144.6000 127° Southeast 440 506 33,000  Level Anchorage Center
Sat 09:31:26 PM 63.7500 -144.3833 125° Southeast 440 506 33,000  Level Anchorage Center
Sat 09:32:26 PM 63.6833 -144.1500 123° Southeast 440 506 33,000  Level Anchorage Center
Sat 09:33:26 PM 63.6167 -143.9333 125° Southeast 430 495 33,000  Level Anchorage Center
Sat 09:34:26 PM 63.5333 -143.7000 129° Southeast 440 506 33,000  Level Anchorage Center
Sat 09:35:26 PM 63.4667 -143.4833 124° Southeast 430 495 33,000  Level Anchorage Center
Sat 09:36:26 PM 63.4000 -143.2667 124° Southeast 440 506 33,000  Level Anchorage Center
Sat 09:38:27 PM 63.2500 -142.8333 127° Southeast 440 506 33,000  Level Anchorage Center
Sat 09:39:26 PM 63.1833 -142.6000 122° Southeast 440 506 33,000  Level Anchorage Center
Sat 09:40:27 PM 63.1000 -142.3833 130° Southeast 440 506 33,000  Level Anchorage Center
Sat 09:42:27 PM 62.9667 -141.9667 125° Southeast 440 506 33,000  Level Anchorage Center
Sat 09:43:27 PM 62.8667 -141.7667 138° Southeast 450 518 33,000  Level Anchorage Center
Sat 09:44:27 PM 62.7833 -141.5833 135° Southeast 430 495 33,000  Level Anchorage Center
Sat 09:45:27 PM 62.7000 -141.4000 135° Southeast 440 506 33,000  Level Anchorage Center
Sat 09:46:27 PM 62.5833 -141.2333 147° Southeast 470 541 33,000  Level Anchorage Center
Sat 09:47:27 PM 62.5167 -141.0500 128° Southeast 430 495 33,000  Level Anchorage Center
Sat 09:50:00 PM 62.3698 -140.8028 139° Southeast  Level FlightAware Approximate
Sat 09:57:00 PM 61.7216 -139.6351 139° Southeast  Level FlightAware Approximate
Sat 09:57:48 PM 61.5000 -139.2667 148° Southeast 450 518 33,000  Level Anchorage Center
Sat 09:58:00 PM 61.6283 -139.4723 140° Southeast  Level FlightAware Approximate
Sat 09:58:49 PM 61.4000 -139.1000 141° Southeast 450 518 33,000  Level Anchorage Center
Sat 09:59:00 PM 61.5347 -139.3105 140° Southeast  Level FlightAware Approximate
Sat 09:59:49 PM 61.3000 -138.9333 141° Southeast 450 518 33,000  Level Anchorage Center
Sat 10:00:00 PM 61.4409 -139.1497 141° Southeast  Level FlightAware Approximate
Sat 10:00:49 PM 61.2000 -138.8000 147° Southeast 450 518 33,000  Level Anchorage Center
Sat 10:01:00 PM 61.3465 -138.9890 141° Southeast  Level FlightAware Approximate
Sat 10:01:49 PM 61.1000 -138.6667 147° Southeast 450 518 33,000  Level Anchorage Center
Sat 10:02:00 PM 61.2445 -138.8507 148° Southeast  Level FlightAware Approximate
Sat 10:02:49 PM 60.9833 -138.5167 148° Southeast 460 529 33,000  Level Anchorage Center
Sat 10:03:00 PM 61.1412 -138.7168 148° Southeast  Level FlightAware Approximate
Sat 10:03:49 PM 60.8667 -138.3833 151° Southeast 460 529 33,000  Level Anchorage Center
Sat 10:04:50 PM 60.7667 -138.2500 147° Southeast 460 529 33,000  Level Anchorage Center
Sat 10:05:50 PM 60.6500 -138.1000 148° Southeast 460 529 33,000  Level Anchorage Center
Sat 10:06:50 PM 60.5500 -137.9667 147° Southeast 460 529 33,000  Level Anchorage Center
Sat 10:07:50 PM 60.4333 -137.8333 151° Southeast 460 529 33,000  Level Anchorage Center
Sat 10:08:50 PM 60.3500 -137.7333 149° Southeast 460 529 33,000  Level Anchorage Center
Sat 10:09:50 PM 60.2333 -137.6000 150° Southeast 460 529 33,000  Level Anchorage Center
Sat 10:10:50 PM 60.1333 -137.4667 146° Southeast 460 529 33,000  Level Anchorage Center
Sat 10:11:50 PM 60.0167 -137.3167 147° Southeast 460 529 33,000  Level Anchorage Center
Sat 10:12:50 PM 59.9167 -137.2000 150° Southeast 460 529 33,000  Level Anchorage Center
Sat 10:13:50 PM 59.8000 -137.0667 150° Southeast 460 529 33,000  Level Anchorage Center
Sat 10:14:51 PM 59.6833 -136.9333 150° Southeast 470 541 33,000  Level Anchorage Center
Sat 10:15:51 PM 59.5833 -136.8000 146° Southeast 460 529 33,000  Level Anchorage Center
Sat 10:16:51 PM 59.4667 -136.6667 150° Southeast 460 529 33,000  Level Anchorage Center
Sat 10:17:51 PM 59.3500 -136.5333 150° Southeast 470 541 33,000  Level Anchorage Center
Sat 10:18:51 PM 59.2333 -136.4167 153° Southeast 470 541 33,000  Level Anchorage Center
Sat 10:19:51 PM 59.1333 -136.2833 146° Southeast 460 529 33,000  Level Anchorage Center
Sat 10:20:51 PM 59.0167 -136.1667 153° Southeast 470 541 33,000  Level Anchorage Center
Sat 10:21:51 PM 58.9000 -136.0333 149° Southeast 460 529 33,000  Level Anchorage Center
Sat 10:22:51 PM 58.7833 -135.9000 149° Southeast 480 552 33,000  Level Anchorage Center
Sat 10:23:52 PM 58.6667 -135.7833 153° Southeast 470 541 33,000  Level Anchorage Center
Sat 10:24:52 PM 58.5500 -135.6500 149° Southeast 470 541 33,000  Level Anchorage Center
Sat 10:25:52 PM 58.4333 -135.5333 152° Southeast 470 541 33,000  Level Anchorage Center
Sat 10:26:52 PM 58.3167 -135.4167 152° Southeast 470 541 33,000  Level Anchorage Center
Sat 10:27:52 PM 58.2167 -135.2833 145° Southeast 470 541 33,000  Level Anchorage Center
Sat 10:28:52 PM 58.1000 -135.1333 146° Southeast 460 529 33,000  Level Anchorage Center
Sat 10:29:52 PM 58.0000 -134.9833 141° Southeast 470 541 33,000  Level Anchorage Center
Sat 10:30:53 PM 57.9000 -134.8167 138° Southeast 470 541 33,000  Level Anchorage Center
Sat 10:31:53 PM 57.8000 -134.6500 138° Southeast 470 541 33,000  Level Anchorage Center
Sat 10:32:53 PM 57.7000 -134.4833 138° Southeast 480 552 33,000  Level Anchorage Center
Sat 10:33:53 PM 57.6000 -134.3167 138° Southeast 470 541 33,000  Level Anchorage Center
Sat 10:34:53 PM 57.5000 -134.1667 141° Southeast 480 552 33,000  Level Anchorage Center
Sat 10:35:53 PM 57.4000 -134.0000 138° Southeast 480 552 33,000  Level Anchorage Center
Sat 10:36:53 PM 57.3000 -133.8333 138° Southeast 480 552 33,000  Level Anchorage Center
Sat 10:37:53 PM 57.2000 -133.6833 141° Southeast 480 552 33,000  Level Anchorage Center
Sat 10:38:53 PM 57.1000 -133.5167 138° Southeast 480 552 33,000  Level Anchorage Center
Sat 10:39:53 PM 57.0000 -133.3667 141° Southeast 480 552 33,000  Level Anchorage Center
Sat 10:40:54 PM 56.8833 -133.2000 142° Southeast 480 552 33,000  Level Anchorage Center
Sat 10:41:54 PM 56.7833 -133.0500 141° Southeast 480 552 33,000  Level Anchorage Center
Sat 10:42:54 PM 56.6833 -132.8833 137° Southeast 490 564 33,000  Level Anchorage Center
Sat 10:43:54 PM 56.5833 -132.7333 140° Southeast 490 564 33,000  Level Anchorage Center
Sat 10:44:54 PM 56.4667 -132.5667 142° Southeast 490 564 33,000  Level Anchorage Center
Sat 10:45:54 PM 56.3667 -132.4167 140° Southeast 500 575 33,000  Level Anchorage Center
Sat 10:46:54 PM 56.2667 -132.2667 140° Southeast 480 552 33,000  Level Anchorage Center
Sat 10:47:55 PM 56.1500 -132.1000 141° Southeast 490 564 33,000  Level Anchorage Center
Sat 10:48:55 PM 56.0500 -131.9500 140° Southeast 490 564 33,000  Level Anchorage Center
Sat 10:49:55 PM 55.9500 -131.8000 140° Southeast 490 564 33,000  Level Anchorage Center
Sat 10:50:55 PM 55.8333 -131.6500 144° Southeast 490 564 33,000  Level Anchorage Center
Sat 10:51:55 PM 55.7333 -131.5000 140° Southeast 500 575 33,000  Level Anchorage Center
Sat 10:52:55 PM 55.6167 -131.3500 144° Southeast 500 575 33,000  Level Anchorage Center
Sat 10:53:55 PM 55.5167 -131.2000 140° Southeast 490 564 33,000  Level Anchorage Center
Sat 10:54:56 PM 55.4000 -131.0500 144° Southeast 490 564 33,000  Level Anchorage Center
Sat 10:55:56 PM 55.3000 -130.9000 139° Southeast 500 575 33,000  Level Anchorage Center
Sat 10:56:56 PM 55.1833 -130.7500 144° Southeast 500 575 33,000  Level Anchorage Center
Sat 10:57:56 PM 55.0833 -130.6000 139° Southeast 500 575 33,000  Level Anchorage Center
Sat 10:58:56 PM 54.9667 -130.4500 144° Southeast 500 575 33,000  Level Anchorage Center
Sat 10:59:56 PM 54.8667 -130.3167 142° Southeast 500 575 33,000  Level Anchorage Center
Sat 11:00:32 PM 54.8000 -130.2500 150° Southeast 500 575 33,000  Level Vancouver Center
Sat 11:01:32 PM 54.6833 -130.1167 147° Southeast 500 575 33,000  Level Vancouver Center
Sat 11:02:32 PM 54.5667 -129.9500 140° Southeast 510 587 33,000  Level Vancouver Center
Sat 11:03:32 PM 54.4500 -129.8333 150° Southeast 510 587 33,000  Level Vancouver Center
Sat 11:04:32 PM 54.3500 -129.6667 136° Southeast 500 575 33,000 400 Level Vancouver Center
Sat 11:05:32 PM 54.2333 -129.5333 146° Southeast 510 587 33,800 850 Climbing Vancouver Center
Sat 11:06:32 PM 54.1167 -129.3833 143° Southeast 500 575 34,700 600 Climbing Vancouver Center
Sat 11:07:32 PM 54.0167 -129.2500 142° Southeast 490 564 35,000 150 Climbing Vancouver Center
Sat 11:08:32 PM 53.9000 -129.1167 146° Southeast 490 564 35,000  Level Vancouver Center
Sat 11:09:32 PM 53.7833 -128.9667 143° Southeast 490 564 35,000  Level Vancouver Center
Sat 11:10:32 PM 53.7000 -128.8500 140° Southeast 490 564 35,000  Level Vancouver Center
Sat 11:11:32 PM 53.5833 -128.7167 146° Southeast 490 564 35,000  Level Vancouver Center
Sat 11:12:32 PM 53.4667 -128.5667 143° Southeast 490 564 35,000  Level Vancouver Center
Sat 11:13:32 PM 53.3500 -128.4333 146° Southeast 490 564 35,000  Level Vancouver Center
Sat 11:14:32 PM 53.2500 -128.2833 138° Southeast 490 564 35,000  Level Vancouver Center
Sat 11:15:32 PM 53.1333 -128.1667 149° Southeast 500 575 35,000  Level Vancouver Center
Sat 11:16:32 PM 53.0167 -128.0500 149° Southeast 490 564 35,000  Level Vancouver Center
Sat 11:17:32 PM 52.9167 -127.9000 138° Southeast 490 564 35,000  Level Vancouver Center
Sat 11:18:32 PM 52.8000 -127.7667 145° Southeast 490 564 35,000  Level Vancouver Center
Sat 11:19:32 PM 52.6833 -127.6500 149° Southeast 490 564 35,000  Level Vancouver Center
Sat 11:20:32 PM 52.5833 -127.5333 145° Southeast 490 564 35,000  Level Vancouver Center
Sat 11:21:32 PM 52.4667 -127.3833 142° Southeast 480 552 35,000  Level Vancouver Center
Sat 11:22:32 PM 52.3667 -127.2667 145° Southeast 480 552 35,000  Level Vancouver Center
Sat 11:23:32 PM 52.2500 -127.1500 149° Southeast 480 552 35,000  Level Vancouver Center
Sat 11:24:32 PM 52.1333 -127.0000 142° Southeast 480 552 35,000  Level Vancouver Center
Sat 11:25:32 PM 52.0167 -126.8833 148° Southeast 490 564 35,000  Level Vancouver Center
Sat 11:26:32 PM 51.9000 -126.7833 152° Southeast 490 564 35,000  Level Vancouver Center
Sat 11:27:32 PM 51.8167 -126.6333 132° Southeast 490 564 35,000  Level Vancouver Center
Sat 11:28:32 PM 51.6833 -126.5167 152° Southeast 480 552 35,000  Level Vancouver Center
Sat 11:29:32 PM 51.5833 -126.4000 144° Southeast 490 564 35,000  Level Vancouver Center
Sat 11:30:32 PM 51.4667 -126.2833 148° Southeast 490 564 35,000  Level Vancouver Center
Sat 11:31:32 PM 51.3500 -126.1500 144° Southeast 480 552 35,000  Level Vancouver Center
Sat 11:32:32 PM 51.2333 -126.0333 148° Southeast 480 552 35,000  Level Vancouver Center
Sat 11:33:32 PM 51.1167 -125.9000 144° Southeast 480 552 35,000  Level Vancouver Center
Sat 11:34:32 PM 51.0167 -125.7833 144° Southeast 480 552 35,000  Level Vancouver Center
Sat 11:35:32 PM 50.9167 -125.6833 148° Southeast 480 552 35,000  Level Vancouver Center
Sat 11:36:32 PM 50.8000 -125.5667 148° Southeast 480 552 35,000  Level Vancouver Center
Sat 11:37:32 PM 50.7000 -125.4667 148° Southeast 480 552 35,000  Level Vancouver Center
Sat 11:38:32 PM 50.5833 -125.3167 141° Southeast 480 552 35,000  Level Vancouver Center
Sat 11:39:32 PM 50.4667 -125.2167 151° Southeast 480 552 35,000  Level Vancouver Center
Sat 11:40:32 PM 50.3500 -125.1000 147° Southeast 480 552 35,000  Level Vancouver Center
Sat 11:41:32 PM 50.2500 -125.0000 147° Southeast 480 552 35,000  Level Vancouver Center
Sat 11:42:32 PM 50.1333 -124.8667 144° Southeast 480 552 35,000  Level Vancouver Center
Sat 11:43:32 PM 50.0167 -124.7667 151° Southeast 480 552 35,000  Level Vancouver Center
Sat 11:44:32 PM 49.9000 -124.6500 147° Southeast 480 552 35,000  Level Vancouver Center
Sat 11:45:32 PM 49.8000 -124.5500 147° Southeast 480 552 35,000  Level Vancouver Center
Sat 11:46:32 PM 49.6833 -124.4167 144° Southeast 480 552 35,000  Level Vancouver Center
Sat 11:47:32 PM 49.5667 -124.3167 151° Southeast 480 552 35,000  Level Vancouver Center
Sat 11:48:32 PM 49.4500 -124.2167 151° Southeast 480 552 35,000  Level Vancouver Center
Sat 11:49:32 PM 49.3500 -124.0833 139° Southeast 480 552 35,000  Level Vancouver Center
Sat 11:50:32 PM 49.2333 -123.9833 151° Southeast 480 552 35,000  Level Vancouver Center
Sat 11:51:32 PM 49.1167 -123.8833 151° Southeast 480 552 35,000 -150 Level Vancouver Center
Sat 11:52:32 PM 49.0167 -123.7667 143° Southeast 470 541 34,700 -1,050 Descending Vancouver Center
Sat 11:53:32 PM 48.9000 -123.6667 151° Southeast 470 541 32,900 -1,850 Descending Vancouver Center
Sat 11:54:32 PM 48.7833 -123.5667 151° Southeast 470 541 31,000 -2,000 Descending Vancouver Center
Sat 11:55:32 PM 48.6833 -123.4500 142° Southeast 460 529 28,900 -2,300 Descending Vancouver Center
Sat 11:56:32 PM 48.5833 -123.3667 151° Southeast 450 518 26,400 -2,500 Descending Vancouver Center
Sat 11:57:32 PM 48.4833 -123.2667 146° Southeast 430 495 23,900 -2,300 Descending Vancouver Center
Sat 11:58:32 PM 48.3833 -123.1667 146° Southeast 400 460 21,800 -2,000 Descending Vancouver Center
Sat 11:59:47 PM 48.3053 -123.0911 147° Southeast 379 436 19,400 -2,203 Descending Seattle Center
Sat 11:59:51 PM 48.2831 -123.0725 151° Southeast 361 415 18,900 -2,542 Descending Seattle Center
Sun 12:00:46 AM 48.2089 -123.0036 148° Southeast 348 400 16,900 -1,789 Descending Seattle Center
Sun 12:00:48 AM 48.2181 -123.0156 319° Northwest 366 421 17,200 -1,645 Climbing Seattle Center
Sun 12:01:48 AM 48.1375 -122.9397 148° Southeast 343 395 15,200 -2,308 Descending Seattle Center
Sun 12:01:53 AM 48.1183 -122.9236 151° Southeast 344 396 14,700 -2,339 Descending Seattle Center
Sun 12:02:47 AM 48.0442 -122.8553 148° Southeast 346 398 12,900 -1,636 Descending Seattle Center
Sun 12:02:48 AM 48.0567 -122.8661 330° Northwest 339 390 13,200 -1,082 Climbing Seattle Center
Sun 12:03:48 AM 47.9869 -122.7408 130° Southeast 328 377 11,800 -1,180 Descending Seattle Center
Sun 12:03:49 AM 47.9961 -122.7589 307° West 335 386 12,000 -1,672 Climbing Seattle Center
Sun 12:04:49 AM 47.9317 -122.6425 130° Southeast 307 353 10,100 -1,636 Descending Seattle Center
Sun 12:05:50 AM 47.8794 -122.5447 129° Southeast 289 333 8,700 -1,254 Descending Seattle Center
Sun 12:05:56 AM 47.8781 -122.5431 141° Southeast 282 325 8,700 -900 Level Seattle Center
Sun 12:06:50 AM 47.8283 -122.4606 132° Southeast 274 315 7,800 -1,096 Descending Seattle Center
Sun 12:07:51 AM 47.7703 -122.4047 147° Southeast 240 276 6,600 -885 Descending Seattle Center
Sun 12:08:52 AM 47.7153 -122.3628 153° Southeast 214 246 6,000 -1,000 Descending Seattle Center
Sun 12:09:51 AM 47.6658 -122.3294 156° South 208 239 4,600 -1,400 Descending Seattle Center
Sun 12:09:52 AM 47.6617 -122.3267 156° South 201 231 4,600 -1,279 Level Seattle Center
Sun 12:10:52 AM 47.6053 -122.3175 174° South 211 243 3,300 -1,180 Descending Seattle Center
Sun 12:10:53 AM 47.6061 -122.3178 347° North 205 236 3,400 -900 Climbing Seattle Center
Sun 12:11:52 AM 47.5578 -122.3172 180° South 172 198 2,400 -885 Descending Seattle Center
Sun 12:11:54 AM 47.5572 -122.3183 233° Southwest 171 197 2,500 -885 Climbing Seattle Center
Sun 12:12:53 AM 47.5144 -122.3181 180° South 158 182 1,500 -885 Descending Seattle Center
Sun 12:12:55 AM 47.5150 -122.3189 315° West 147 169 1,600 -800 Climbing Seattle Center
Sun 12:13:53 AM 47.4764 -122.3175 179° South 139 160 700 -800 Descending Seattle Center
Sun 12:13:55 AM 47.4775 -122.3197 306° West 134 154 800 -295 Climbing Seattle Center
Sun 12:14:54 AM 47.4392 -122.3186 179° South 135 155 400 -407 Descending Seattle Center
Sun 12:16:00 AM 47.4333 -122.3000 170° South  Level FlightAware Approximate

Login

Don't have an account? Register now (free) for customized features, flight alerts, and more!